createdAt,value
2022-11-01T00:02:04.208Z,84.94
2022-11-01T00:04:30.945Z,84.97
2022-11-01T00:06:57.610Z,84.10
2022-11-01T00:09:24.256Z,84.16
2022-11-01T00:11:50.927Z,84.46
2022-11-01T00:14:18.468Z,84.57
2022-11-01T00:16:45.131Z,84.67
2022-11-01T00:19:11.807Z,84.92
2022-11-01T00:21:38.474Z,85.02
2022-11-01T00:24:05.526Z,84.98
2022-11-01T00:26:32.305Z,84.55
2022-11-01T00:28:58.928Z,84.83
2022-11-01T00:31:25.908Z,85.15
2022-11-01T00:33:52.550Z,84.96
2022-11-01T00:36:19.292Z,84.89
2022-11-01T00:38:49.897Z,85.12
2022-11-01T00:41:16.537Z,85.50
2022-11-01T00:43:43.392Z,86.20
2022-11-01T00:46:10.183Z,85.95
2022-11-01T00:48:36.799Z,86.12
2022-11-01T00:51:03.683Z,86.16
2022-11-01T00:53:30.381Z,86.47
2022-11-01T00:56:04.190Z,86.86
2022-11-01T00:58:30.870Z,86.94
2022-11-01T01:00:57.665Z,86.95
2022-11-01T01:03:30.501Z,87.02
2022-11-01T01:05:57.188Z,87.46
2022-11-01T01:08:24.090Z,87.41
2022-11-01T01:11:36.524Z,87.50
2022-11-01T01:14:03.166Z,87.47
2022-11-01T01:16:29.842Z,87.79
2022-11-01T01:18:56.515Z,88.12
2022-11-01T01:21:23.126Z,88.19
2022-11-01T01:23:51.536Z,89.00
2022-11-01T01:26:18.271Z,88.75
2022-11-01T01:28:45.065Z,88.51
2022-11-01T01:31:12.841Z,88.80
2022-11-01T01:33:39.602Z,88.85
2022-11-01T01:36:06.711Z,88.32
2022-11-01T01:38:33.376Z,88.80
2022-11-01T01:41:18.580Z,88.53
2022-11-01T01:43:45.263Z,88.46
2022-11-01T01:46:11.942Z,87.85
2022-11-01T01:48:40.169Z,87.30
2022-11-01T01:51:09.119Z,88.03
2022-11-01T01:53:41.052Z,88.11
2022-11-01T01:56:12.460Z,87.69
2022-11-01T01:58:45.178Z,88.19
2022-11-01T02:01:12.022Z,88.81
2022-11-01T02:03:38.917Z,89.36
2022-11-01T02:06:18.695Z,89.15
2022-11-01T02:08:47.581Z,89.64
2022-11-01T02:11:15.054Z,89.26
2022-11-01T02:13:41.723Z,89.06
2022-11-01T02:16:39.211Z,89.31
2022-11-01T02:19:27.029Z,89.24
2022-11-01T02:22:09.908Z,89.93
2022-11-01T02:24:55.442Z,89.39
2022-11-01T02:27:34.156Z,89.63
2022-11-01T02:30:06.352Z,90.10
2022-11-01T02:32:39.487Z,89.58
2022-11-01T02:35:09.158Z,90.20
2022-11-01T02:37:46.920Z,90.21
2022-11-01T02:40:21.750Z,90.27
2022-11-01T02:42:50.521Z,90.83
2022-11-01T02:45:29.065Z,90.75
2022-11-01T02:48:19.553Z,91.21
2022-11-01T02:50:47.516Z,90.88
2022-11-01T02:53:14.163Z,91.79
2022-11-01T02:55:40.791Z,91.62
2022-11-01T02:58:22.932Z,91.69
2022-11-01T03:00:49.685Z,91.54
2022-11-01T03:03:20.514Z,91.61
2022-11-01T03:05:55.221Z,91.48
2022-11-01T03:08:34.456Z,92.14
2022-11-01T03:11:12.448Z,91.24
2022-11-01T03:13:57.849Z,90.99
2022-11-01T03:16:36.634Z,91.29
2022-11-01T03:19:20.974Z,90.44
2022-11-01T03:21:52.471Z,90.37
2022-11-01T03:24:27.702Z,90.33
2022-11-01T03:27:00.966Z,89.82
2022-11-01T03:29:27.678Z,89.81
2022-11-01T03:31:54.288Z,89.19
2022-11-01T03:34:20.964Z,89.70
2022-11-01T03:36:51.589Z,89.19
2022-11-01T03:39:24.429Z,89.57
2022-11-01T03:41:53.343Z,89.39
2022-11-01T03:44:20.018Z,88.83
2022-11-01T03:46:46.807Z,89.15
2022-11-01T03:49:18.118Z,88.38
2022-11-01T03:51:44.755Z,88.36
2022-11-01T03:54:11.521Z,88.42
2022-11-01T03:56:40.701Z,88.60
2022-11-01T03:59:08.493Z,88.56
2022-11-01T04:01:35.373Z,88.17
2022-11-01T04:04:02.494Z,88.05
2022-11-01T04:06:29.123Z,87.90
2022-11-01T04:08:56.030Z,87.10
2022-11-01T04:11:23.128Z,86.73
2022-11-01T04:13:49.776Z,86.26
2022-11-01T04:16:34.990Z,86.21
2022-11-01T04:19:20.390Z,86.48
2022-11-01T04:21:47.084Z,86.17
2022-11-01T04:24:21.163Z,86.64
2022-11-01T04:26:48.091Z,87.03
2022-11-01T04:29:14.782Z,86.90
2022-11-01T04:31:41.386Z,86.76
2022-11-01T04:34:08.094Z,86.73
2022-11-01T04:36:34.746Z,86.91
2022-11-01T04:39:01.383Z,86.79
2022-11-01T04:41:28.833Z,86.66
2022-11-01T04:43:58.036Z,86.43
2022-11-01T04:46:24.937Z,86.52
2022-11-01T04:52:38.387Z,86.20
2022-11-01T04:55:05.366Z,86.18
2022-11-01T04:57:31.953Z,85.40
2022-11-01T04:59:58.617Z,85.30
2022-11-01T05:02:25.283Z,86.10
2022-11-01T05:04:51.942Z,86.27
2022-11-01T05:07:18.653Z,85.89
2022-11-01T05:09:45.335Z,85.84
2022-11-01T05:12:12.893Z,85.80
2022-11-01T05:14:39.516Z,85.16
2022-11-01T05:17:06.254Z,85.08
2022-11-01T05:19:32.980Z,85.13
2022-11-01T05:21:59.897Z,85.13
2022-11-01T05:24:26.632Z,85.15
2022-11-01T05:26:53.295Z,85.27
2022-11-01T05:29:24.940Z,84.93
2022-11-01T05:31:59.380Z,84.79
2022-11-01T05:34:26.021Z,84.84
2022-11-01T05:36:53.716Z,85.31
2022-11-01T05:39:20.425Z,85.59
2022-11-01T05:41:47.087Z,84.99
2022-11-01T05:44:13.756Z,84.81
2022-11-01T05:46:40.495Z,85.05
2022-11-01T05:49:07.143Z,84.23
2022-11-01T05:51:33.768Z,84.90
2022-11-01T05:54:00.465Z,84.73
2022-11-01T05:56:27.097Z,84.44
2022-11-01T05:58:53.773Z,84.22
2022-11-01T06:01:21.342Z,83.98
2022-11-01T06:03:50.020Z,83.93
2022-11-01T06:06:16.712Z,84.04
2022-11-01T06:08:43.405Z,83.88
2022-11-01T06:11:10.098Z,84.03
2022-11-01T06:13:36.689Z,83.37
2022-11-01T06:16:05.351Z,83.93
2022-11-01T06:18:32.065Z,83.94
2022-11-01T06:20:59.400Z,83.97
2022-11-01T06:23:26.099Z,84.05
2022-11-01T06:26:00.054Z,83.40
2022-11-01T06:28:26.804Z,83.49
2022-11-01T06:30:53.568Z,83.93
2022-11-01T06:33:20.181Z,83.83
2022-11-01T06:35:46.856Z,84.10
2022-11-01T06:38:13.520Z,83.42
2022-11-01T06:40:40.164Z,83.62
2022-11-01T06:43:06.840Z,83.67
2022-11-01T06:45:33.514Z,82.88
2022-11-01T06:48:00.443Z,83.75
2022-11-01T06:50:27.544Z,83.72
2022-11-01T06:52:58.455Z,83.75
2022-11-01T06:55:25.833Z,83.67
2022-11-01T06:57:56.452Z,82.98
2022-11-01T07:00:23.360Z,82.63
2022-11-01T07:02:49.976Z,82.75
2022-11-01T07:05:16.683Z,83.51
2022-11-01T07:07:43.381Z,83.22
2022-11-01T07:10:10.169Z,82.20
2022-11-01T07:12:36.760Z,82.34
2022-11-01T07:15:04.386Z,82.70
2022-11-01T07:17:30.969Z,82.49
2022-11-01T07:19:57.721Z,81.93
2022-11-01T07:22:24.518Z,82.49
2022-11-01T07:24:51.184Z,82.36
2022-11-01T07:27:20.454Z,82.23
2022-11-01T07:29:47.474Z,82.19
2022-11-01T07:32:14.105Z,81.99
2022-11-01T07:34:40.700Z,81.83
2022-11-01T07:37:07.317Z,82.11
2022-11-01T07:39:33.982Z,81.83
2022-11-01T07:42:00.593Z,80.33
2022-11-01T07:44:27.221Z,80.31
2022-11-01T07:46:54.010Z,80.79
2022-11-01T07:49:20.640Z,81.46
2022-11-01T07:51:47.216Z,81.28
2022-11-01T07:54:14.075Z,80.54
2022-11-01T07:56:40.734Z,80.96
2022-11-01T07:59:08.483Z,81.09
2022-11-01T08:01:35.170Z,80.89
2022-11-01T08:04:01.885Z,81.08
2022-11-01T08:06:28.517Z,80.92
2022-11-01T08:08:55.272Z,80.77
2022-11-01T08:11:21.859Z,80.47
2022-11-01T08:13:48.436Z,80.28
2022-11-01T08:16:18.240Z,80.56
2022-11-01T08:18:45.340Z,80.37
2022-11-01T08:21:18.598Z,79.64
2022-11-01T08:23:45.957Z,79.93
2022-11-01T08:26:12.718Z,80.11
2022-11-01T08:28:39.554Z,79.83
2022-11-01T08:31:07.685Z,79.81
2022-11-01T08:33:34.561Z,79.86
2022-11-01T08:36:01.222Z,80.13
2022-11-01T08:38:27.972Z,79.67
2022-11-01T08:40:55.150Z,79.87
2022-11-01T08:43:21.787Z,79.72
2022-11-01T08:45:48.567Z,79.95
2022-11-01T08:48:15.121Z,80.21
2022-11-01T08:51:08.636Z,80.45
2022-11-01T08:53:35.383Z,79.80
2022-11-01T08:56:02.088Z,79.95
2022-11-01T08:58:28.720Z,79.66
2022-11-01T09:00:55.405Z,79.77
2022-11-01T09:03:22.049Z,79.42
2022-11-01T09:05:48.855Z,79.23
2022-11-01T09:08:15.447Z,78.85
2022-11-01T09:10:42.062Z,78.30
2022-11-01T09:13:08.950Z,78.43
2022-11-01T09:15:35.561Z,78.46
2022-11-01T09:18:07.087Z,78.14
2022-11-01T09:20:33.759Z,77.98
2022-11-01T09:23:00.887Z,77.83
2022-11-01T09:25:27.727Z,77.80
2022-11-01T09:27:56.748Z,76.94
2022-11-01T09:30:24.166Z,77.23
2022-11-01T09:32:50.824Z,77.64
2022-11-01T09:35:18.211Z,76.82
2022-11-01T09:37:45.042Z,76.97
2022-11-01T09:40:14.306Z,77.40
2022-11-01T09:42:43.885Z,77.15
2022-11-01T09:45:19.138Z,76.99
2022-11-01T09:47:56.271Z,76.59
2022-11-01T09:50:27.799Z,76.71
2022-11-01T09:52:55.099Z,76.48
2022-11-01T09:55:37.391Z,77.02
2022-11-01T09:58:09.056Z,77.23
2022-11-01T10:00:38.649Z,77.06
2022-11-01T10:03:20.429Z,76.85
2022-11-01T10:06:20.199Z,75.65
2022-11-01T10:08:58.765Z,75.76
2022-11-01T10:11:56.343Z,76.51
2022-11-01T10:14:31.965Z,76.24
2022-11-01T10:17:10.820Z,75.64
2022-11-01T10:19:37.379Z,75.53
2022-11-01T10:22:06.900Z,75.17
2022-11-01T10:24:37.929Z,75.74
2022-11-01T10:27:50.164Z,76.35
2022-11-01T10:30:17.326Z,75.97
2022-11-01T10:33:17.199Z,75.31
2022-11-01T10:35:45.129Z,76.50
2022-11-01T10:38:28.004Z,76.40
2022-11-01T10:41:09.117Z,76.06
2022-11-01T10:43:41.088Z,75.40
2022-11-01T10:46:08.996Z,76.25
2022-11-01T10:48:42.699Z,76.67
2022-11-01T10:51:09.278Z,76.67
2022-11-01T10:53:44.592Z,76.48
2022-11-01T10:56:12.534Z,76.82
2022-11-01T10:59:19.477Z,76.87
2022-11-01T11:01:47.470Z,75.82
2022-11-01T11:04:15.814Z,75.86
2022-11-01T11:06:42.604Z,76.38
2022-11-01T11:09:32.982Z,76.44
2022-11-01T11:12:02.492Z,76.12
2022-11-01T11:14:31.676Z,76.79
2022-11-01T11:16:58.529Z,76.41
2022-11-01T11:19:35.609Z,77.31
2022-11-01T11:22:03.453Z,76.65
2022-11-01T11:24:35.433Z,76.72
2022-11-01T11:27:03.311Z,76.86
2022-11-01T11:29:40.156Z,76.33
2022-11-01T11:32:13.234Z,76.86
2022-11-01T11:34:40.028Z,77.55
2022-11-01T11:37:08.161Z,76.92
2022-11-01T11:39:37.934Z,77.25
2022-11-01T11:42:25.801Z,77.33
2022-11-01T11:44:56.915Z,76.61
2022-11-01T11:47:28.236Z,76.81
2022-11-01T11:49:56.957Z,77.16
2022-11-01T11:52:28.797Z,76.82
2022-11-01T11:54:55.993Z,76.10
2022-11-01T11:57:27.032Z,76.45
2022-11-01T11:59:55.483Z,76.88
2022-11-01T12:02:24.233Z,76.65
2022-11-01T12:04:59.737Z,76.63
2022-11-01T12:07:35.490Z,75.89
2022-11-01T12:10:04.124Z,76.04
2022-11-01T12:12:40.698Z,75.82
2022-11-01T12:15:26.219Z,75.85
2022-11-01T12:17:52.795Z,75.60
2022-11-01T12:20:21.015Z,75.74
2022-11-01T12:23:31.534Z,75.49
2022-11-01T12:26:02.358Z,75.36
2022-11-01T12:28:40.172Z,76.25
2022-11-01T12:31:20.089Z,76.41
2022-11-01T12:33:54.740Z,76.56
2022-11-01T12:36:26.478Z,76.19
2022-11-01T12:39:38.217Z,75.95
2022-11-01T12:42:05.094Z,76.04
2022-11-01T12:44:33.725Z,76.50
2022-11-01T12:47:04.533Z,76.58
2022-11-01T12:49:40.314Z,76.98
2022-11-01T12:52:28.386Z,77.04
2022-11-01T12:55:05.376Z,76.88
2022-11-01T12:57:32.525Z,76.95
2022-11-01T12:59:59.156Z,77.08
2022-11-01T13:02:25.854Z,77.27
2022-11-01T13:04:57.697Z,76.97
2022-11-01T13:07:24.243Z,76.70
2022-11-01T13:10:03.326Z,76.54
2022-11-01T13:12:39.121Z,76.55
2022-11-01T13:15:14.938Z,76.87
2022-11-01T13:17:44.464Z,76.84
2022-11-01T13:20:19.443Z,76.99
2022-11-01T13:22:58.033Z,76.61
2022-11-01T13:25:28.512Z,77.18
2022-11-01T13:27:59.613Z,77.20
2022-11-01T13:30:26.181Z,77.93
2022-11-01T13:33:00.475Z,78.02
2022-11-01T13:35:40.170Z,78.08
2022-11-01T13:38:28.968Z,77.77
2022-11-01T13:41:41.165Z,78.24
2022-11-01T13:44:16.732Z,78.14
2022-11-01T13:46:49.249Z,78.27
2022-11-01T13:49:35.143Z,78.38
2022-11-01T13:52:20.914Z,78.34
2022-11-01T13:54:50.680Z,77.52
2022-11-01T13:57:17.744Z,77.87
2022-11-01T13:59:54.185Z,78.30
2022-11-01T14:02:23.952Z,77.61
2022-11-01T14:05:08.779Z,77.76
2022-11-01T14:07:44.480Z,78.01
2022-11-01T14:10:11.299Z,78.51
2022-11-01T14:12:46.462Z,77.86
2022-11-01T14:15:22.877Z,77.75
2022-11-01T14:17:52.820Z,77.92
2022-11-01T14:20:19.515Z,77.94
2022-11-01T14:22:46.247Z,77.83
2022-11-01T14:25:12.878Z,77.45
2022-11-01T14:27:48.827Z,77.72
2022-11-01T14:30:24.941Z,77.80
2022-11-01T14:32:57.233Z,78.10
2022-11-01T14:35:29.245Z,78.44
2022-11-01T14:37:57.679Z,77.67
2022-11-01T14:40:31.818Z,77.70
2022-11-01T14:43:26.514Z,77.96
2022-11-01T14:45:56.483Z,78.37
2022-11-01T14:48:40.332Z,78.24
2022-11-01T14:51:07.906Z,77.72
2022-11-01T14:53:37.802Z,78.10
2022-11-01T14:56:15.306Z,78.43
2022-11-01T14:58:42.194Z,78.73
2022-11-01T15:01:15.500Z,78.61
2022-11-01T15:03:46.476Z,78.99
2022-11-01T15:06:24.218Z,78.73
2022-11-01T15:08:50.948Z,79.25
2022-11-01T15:11:17.685Z,78.66
2022-11-01T15:13:44.532Z,79.03
2022-11-01T15:16:14.124Z,78.50
2022-11-01T15:19:02.464Z,78.08
2022-11-01T15:21:31.307Z,77.86
2022-11-01T15:23:58.411Z,78.20
2022-11-01T15:26:27.182Z,78.65
2022-11-01T15:28:58.731Z,78.77
2022-11-01T15:31:25.450Z,78.85
2022-11-01T15:34:00.060Z,78.73
2022-11-01T15:36:29.553Z,78.72
2022-11-01T15:38:57.642Z,78.91
2022-11-01T15:41:33.874Z,79.09
2022-11-01T15:44:06.173Z,78.75
2022-11-01T15:46:42.038Z,78.84
2022-11-01T15:49:09.989Z,78.94
2022-11-01T15:51:40.854Z,78.93
2022-11-01T15:54:15.617Z,79.37
2022-11-01T15:56:45.634Z,79.39
2022-11-01T15:59:42.464Z,79.72
2022-11-01T16:02:13.863Z,79.73
2022-11-01T16:04:41.506Z,79.92
2022-11-01T16:07:08.400Z,79.62
2022-11-01T16:09:52.448Z,80.03
2022-11-01T16:12:27.534Z,79.92
2022-11-01T16:14:58.822Z,79.92
2022-11-01T16:17:39.728Z,80.07
2022-11-01T16:20:26.114Z,80.19
2022-11-01T16:22:52.760Z,79.90
2022-11-01T16:25:24.104Z,80.07
2022-11-01T16:27:52.510Z,80.02
2022-11-01T16:30:52.417Z,80.22
2022-11-01T16:33:43.557Z,80.62
2022-11-01T16:36:19.228Z,80.59
2022-11-01T16:38:52.945Z,80.91
2022-11-01T16:41:24.117Z,80.79
2022-11-01T16:43:54.298Z,81.08
2022-11-01T16:46:21.405Z,81.42
2022-11-01T16:48:58.348Z,81.29
2022-11-01T16:51:27.083Z,81.47
2022-11-01T16:53:57.584Z,81.14
2022-11-01T16:56:37.443Z,81.48
2022-11-01T16:59:41.295Z,81.16
2022-11-01T17:02:22.179Z,81.53
2022-11-01T17:05:13.482Z,81.28
2022-11-01T17:07:40.243Z,81.34
2022-11-01T17:10:21.043Z,81.26
2022-11-01T17:12:47.847Z,81.61
2022-11-01T17:15:14.923Z,81.01
2022-11-01T17:17:42.392Z,81.73
2022-11-01T17:20:14.739Z,81.31
2022-11-01T17:22:41.453Z,80.69
2022-11-01T17:25:10.418Z,80.23
2022-11-01T17:27:37.164Z,80.79
2022-11-01T17:30:04.337Z,80.54
2022-11-01T17:32:30.926Z,80.78
2022-11-01T17:34:57.651Z,80.81
2022-11-01T17:37:24.477Z,80.51
2022-11-01T17:39:51.307Z,80.98
2022-11-01T17:42:17.954Z,81.06
2022-11-01T17:44:44.584Z,81.15
2022-11-01T17:47:13.985Z,80.67
2022-11-01T17:49:40.665Z,81.16
2022-11-01T17:52:07.233Z,80.58
2022-11-01T17:54:34.895Z,80.63
2022-11-01T17:57:01.467Z,80.21
2022-11-01T17:59:28.672Z,80.43
2022-11-01T18:01:55.481Z,80.62
2022-11-01T18:04:22.335Z,80.52
2022-11-01T18:06:49.105Z,80.50
2022-11-01T18:09:20.216Z,80.83
2022-11-01T18:12:07.946Z,80.37
2022-11-01T18:14:49.908Z,80.71
2022-11-01T18:17:38.252Z,81.04
2022-11-01T18:20:42.893Z,80.78
2022-11-01T18:23:12.551Z,80.81
2022-11-01T18:25:46.070Z,80.72
2022-11-01T18:28:16.314Z,80.79
2022-11-01T18:31:33.565Z,80.33
2022-11-01T18:34:12.840Z,81.28
2022-11-01T18:36:57.343Z,80.98
2022-11-01T18:39:43.523Z,80.83
2022-11-01T18:42:10.408Z,81.02
2022-11-01T18:44:37.682Z,81.20
2022-11-01T18:47:23.870Z,80.72
2022-11-01T18:49:50.439Z,80.64
2022-11-01T18:52:18.181Z,80.98
2022-11-01T18:54:52.330Z,81.09
2022-11-01T18:57:24.764Z,81.23
2022-11-01T18:59:53.001Z,80.84
2022-11-01T19:02:21.453Z,81.06
2022-11-01T19:04:50.195Z,80.91
2022-11-01T19:07:22.622Z,80.50
2022-11-01T19:09:52.419Z,80.65
2022-11-01T19:12:31.277Z,81.33
2022-11-01T19:15:28.536Z,80.85
2022-11-01T19:18:04.633Z,80.69
2022-11-01T19:20:35.487Z,80.85
2022-11-01T19:23:03.242Z,81.17
2022-11-01T19:25:34.243Z,81.36
2022-11-01T19:28:27.986Z,81.11
2022-11-01T19:30:56.126Z,80.89
2022-11-01T19:33:37.646Z,81.27
2022-11-01T19:36:11.626Z,81.15
2022-11-01T19:38:43.278Z,81.22
2022-11-01T19:41:14.192Z,81.59
2022-11-01T19:43:40.821Z,81.15
2022-11-01T19:46:15.967Z,81.15
2022-11-01T19:48:42.658Z,81.34
2022-11-01T19:51:38.641Z,81.27
2022-11-01T19:54:06.876Z,81.25
2022-11-01T19:56:34.652Z,81.18
2022-11-01T19:59:03.730Z,81.15
2022-11-01T20:01:43.056Z,81.01
2022-11-01T20:04:12.992Z,81.23
2022-11-01T20:06:57.604Z,81.05
2022-11-01T20:09:26.464Z,80.77
2022-11-01T20:11:53.214Z,81.32
2022-11-01T20:14:20.115Z,80.99
2022-11-01T20:16:46.811Z,81.05
2022-11-01T20:19:16.543Z,81.48
2022-11-01T20:21:44.776Z,81.19
2022-11-01T20:24:11.381Z,81.27
2022-11-01T20:26:38.173Z,81.15
2022-11-01T20:29:04.794Z,81.84
2022-11-01T20:31:31.523Z,81.69
2022-11-01T20:33:58.996Z,81.19
2022-11-01T20:36:26.316Z,81.70
2022-11-01T20:38:53.311Z,81.46
2022-11-01T20:41:20.656Z,81.41
2022-11-01T20:43:47.283Z,81.78
2022-11-01T20:46:13.984Z,81.35
2022-11-01T20:48:40.934Z,82.28
2022-11-01T20:51:07.535Z,81.81
2022-11-01T20:53:34.479Z,82.12
2022-11-01T20:56:01.959Z,82.06
2022-11-01T20:58:28.620Z,81.33
2022-11-01T21:00:55.923Z,81.82
2022-11-01T21:03:26.931Z,81.63
2022-11-01T21:05:53.540Z,81.75
2022-11-01T21:08:24.617Z,81.85
2022-11-01T21:11:16.877Z,82.35
2022-11-01T21:13:46.474Z,82.00
2022-11-01T21:16:24.196Z,81.55
2022-11-01T21:18:52.541Z,82.16
2022-11-01T21:21:27.065Z,81.99
2022-11-01T21:23:53.907Z,81.85
2022-11-01T21:26:24.861Z,82.17
2022-11-01T21:28:56.142Z,82.26
2022-11-01T21:31:30.384Z,82.21
2022-11-01T21:34:04.525Z,82.33
2022-11-01T21:36:35.220Z,81.81
2022-11-01T21:39:01.831Z,82.45
2022-11-01T21:41:38.915Z,82.62
2022-11-01T21:44:20.600Z,82.13
2022-11-01T21:46:55.243Z,82.37
2022-11-01T21:49:27.088Z,82.08
2022-11-01T21:51:54.642Z,82.57
2022-11-01T21:54:21.430Z,82.66
2022-11-01T21:56:48.207Z,82.49
2022-11-01T21:59:14.891Z,82.40
2022-11-01T22:01:44.062Z,82.28
2022-11-01T22:04:11.371Z,82.78
2022-11-01T22:06:38.013Z,82.31
2022-11-01T22:09:05.052Z,82.83
2022-11-01T22:11:32.906Z,82.68
2022-11-01T22:13:59.839Z,82.64
2022-11-01T22:16:26.563Z,82.38
2022-11-01T22:18:53.198Z,82.62
2022-11-01T22:21:19.868Z,83.08
2022-11-01T22:23:47.061Z,82.55
2022-11-01T22:26:13.842Z,82.78
2022-11-01T22:28:40.474Z,82.30
2022-11-01T22:31:07.226Z,82.06
2022-11-01T22:33:34.510Z,82.77
2022-11-01T22:36:02.384Z,82.44
2022-11-01T22:38:42.598Z,82.79
2022-11-01T22:41:12.157Z,82.44
2022-11-01T22:43:42.090Z,83.01
2022-11-01T22:46:33.149Z,82.96
2022-11-01T22:49:09.874Z,83.27
2022-11-01T22:51:40.618Z,83.07
2022-11-01T22:54:25.827Z,83.04
2022-11-01T22:56:59.022Z,83.45
2022-11-01T22:59:29.324Z,83.87
2022-11-01T23:02:01.990Z,83.94
2022-11-01T23:04:28.969Z,83.88
2022-11-01T23:06:56.809Z,83.66
2022-11-01T23:09:23.713Z,84.21
2022-11-01T23:12:12.945Z,84.29
2022-11-01T23:14:40.322Z,83.80
2022-11-01T23:17:20.471Z,84.19
2022-11-01T23:19:47.544Z,83.88
2022-11-01T23:22:16.013Z,83.80
2022-11-01T23:24:42.686Z,83.85
2022-11-01T23:27:09.297Z,84.13
2022-11-01T23:29:36.110Z,83.89
2022-11-01T23:32:02.925Z,83.56
2022-11-01T23:34:29.553Z,84.09
2022-11-01T23:36:56.141Z,83.92
2022-11-01T23:39:22.745Z,83.91
2022-11-01T23:41:51.013Z,83.80
2022-11-01T23:44:29.833Z,83.48
2022-11-01T23:47:03.481Z,83.83
2022-11-01T23:49:31.295Z,83.82
2022-11-01T23:51:58.336Z,83.42
2022-11-01T23:54:37.125Z,83.49
2022-11-01T23:57:03.947Z,83.37
2022-11-01T23:59:31.377Z,83.78
